createdAt,value
2023-04-26T00:00:21.078Z,4.60
2023-04-26T00:01:21.049Z,5.00
2023-04-26T00:02:21.154Z,5.00
2023-04-26T00:03:21.193Z,4.70
2023-04-26T00:04:21.168Z,5.10
2023-04-26T00:05:21.006Z,5.30
2023-04-26T00:06:20.894Z,5.30
2023-04-26T00:07:20.867Z,5.00
2023-04-26T00:08:20.845Z,5.60
2023-04-26T00:09:20.808Z,5.80
2023-04-26T00:10:20.780Z,5.30
2023-04-26T00:11:20.753Z,5.90
2023-04-26T00:12:20.727Z,5.40
2023-04-26T00:13:20.693Z,5.30
2023-04-26T00:14:20.680Z,5.60
2023-04-26T00:15:20.648Z,5.50
2023-04-26T00:16:20.635Z,5.60
2023-04-26T00:17:20.585Z,5.60
2023-04-26T00:18:20.547Z,5.70
2023-04-26T00:19:20.515Z,5.50
2023-04-26T00:20:20.486Z,5.80
2023-04-26T00:21:20.453Z,5.60
2023-04-26T00:22:20.428Z,6.00
2023-04-26T00:23:20.397Z,5.80
2023-04-26T00:24:20.375Z,5.60
2023-04-26T00:25:20.339Z,5.60
2023-04-26T00:26:20.316Z,5.50
2023-04-26T00:27:20.302Z,5.60
2023-04-26T00:28:20.269Z,5.90
2023-04-26T00:29:20.221Z,5.80
2023-04-26T00:30:20.246Z,5.80
2023-04-26T00:31:20.236Z,5.70
2023-04-26T00:32:20.265Z,5.70
2023-04-26T00:33:20.106Z,5.40
2023-04-26T00:34:20.074Z,5.60
2023-04-26T00:35:20.050Z,5.90
2023-04-26T00:36:20.024Z,5.80
2023-04-26T00:37:19.987Z,5.70
2023-04-26T00:38:19.966Z,5.50
2023-04-26T00:39:19.929Z,5.80
2023-04-26T00:40:19.901Z,5.70
2023-04-26T00:41:19.869Z,5.60
2023-04-26T00:42:19.841Z,5.60
2023-04-26T00:43:19.817Z,5.70
2023-04-26T00:44:19.785Z,5.60
2023-04-26T00:45:19.760Z,5.60
2023-04-26T00:46:20.027Z,5.70
2023-04-26T00:47:19.694Z,5.50
2023-04-26T00:48:19.670Z,5.20
2023-04-26T00:49:19.638Z,5.60
2023-04-26T00:50:19.612Z,5.70
2023-04-26T00:51:19.582Z,5.80
2023-04-26T00:52:19.549Z,5.40
2023-04-26T00:53:19.543Z,5.40
2023-04-26T00:54:19.496Z,5.40
2023-04-26T00:55:19.464Z,5.60
2023-04-26T00:56:19.437Z,5.00
2023-04-26T00:57:19.404Z,5.60
2023-04-26T00:58:19.413Z,5.80
2023-04-26T00:59:19.347Z,5.20
2023-04-26T01:00:19.316Z,5.30
2023-04-26T01:01:19.393Z,5.60
2023-04-26T01:02:19.392Z,5.60
2023-04-26T01:03:19.457Z,5.30
2023-04-26T01:04:19.458Z,5.10
2023-04-26T01:05:19.174Z,5.10
2023-04-26T01:06:19.142Z,5.20
2023-04-26T01:07:19.114Z,5.40
2023-04-26T01:08:19.085Z,5.40
2023-04-26T01:09:19.062Z,5.40
2023-04-26T01:10:19.029Z,5.20
2023-04-26T01:11:18.995Z,5.20
2023-04-26T01:12:18.967Z,5.10
2023-04-26T01:13:18.935Z,5.50
2023-04-26T01:14:18.909Z,5.30
2023-04-26T01:15:18.878Z,5.40
2023-04-26T01:16:18.896Z,5.10
2023-04-26T01:17:18.827Z,5.20
2023-04-26T01:18:18.820Z,4.70
2023-04-26T01:19:18.775Z,5.30
2023-04-26T01:20:18.736Z,5.50
2023-04-26T01:21:18.704Z,5.20
2023-04-26T01:22:18.696Z,5.60
2023-04-26T01:23:18.644Z,5.50
2023-04-26T01:24:18.625Z,5.70
2023-04-26T01:25:18.584Z,5.70
2023-04-26T01:26:18.554Z,5.80
2023-04-26T01:27:18.528Z,5.90
2023-04-26T01:28:18.498Z,5.90
2023-04-26T01:29:18.501Z,5.50
2023-04-26T01:30:18.454Z,5.80
2023-04-26T01:31:18.471Z,5.60
2023-04-26T01:32:18.385Z,6.00
2023-04-26T01:33:18.350Z,6.20
2023-04-26T01:34:18.429Z,6.20
2023-04-26T01:35:18.294Z,6.30
2023-04-26T01:36:18.269Z,5.50
2023-04-26T01:37:18.234Z,6.00
2023-04-26T01:38:18.205Z,6.40
2023-04-26T01:39:18.173Z,6.20
2023-04-26T01:40:18.157Z,5.70
2023-04-26T01:41:18.114Z,6.00
2023-04-26T01:42:18.088Z,6.00
2023-04-26T01:43:18.058Z,5.60
2023-04-26T01:44:18.028Z,6.00
2023-04-26T01:45:17.997Z,5.80
2023-04-26T01:46:18.014Z,5.90
2023-04-26T01:47:17.939Z,5.90
2023-04-26T01:48:17.924Z,5.90
2023-04-26T01:49:17.885Z,5.70
2023-04-26T01:50:17.879Z,5.90
2023-04-26T01:51:17.836Z,5.90
2023-04-26T01:52:17.795Z,5.90
2023-04-26T01:53:17.761Z,6.10
2023-04-26T01:54:17.731Z,6.10
2023-04-26T01:55:17.713Z,5.30
2023-04-26T01:56:17.686Z,5.70
2023-04-26T01:57:17.642Z,5.90
2023-04-26T01:58:17.614Z,5.90
2023-04-26T01:59:17.598Z,5.50
2023-04-26T02:00:17.562Z,6.00
2023-04-26T02:01:17.552Z,6.00
2023-04-26T02:02:17.568Z,6.00
2023-04-26T02:03:17.619Z,5.90
2023-04-26T02:04:17.443Z,5.90
2023-04-26T02:05:17.440Z,6.00
2023-04-26T02:06:17.403Z,5.60
2023-04-26T02:07:17.346Z,5.80
2023-04-26T02:08:17.319Z,5.80
2023-04-26T02:09:17.287Z,5.90
2023-04-26T02:10:17.259Z,6.00
2023-04-26T02:11:17.295Z,5.80
2023-04-26T02:12:17.200Z,5.60
2023-04-26T02:13:17.176Z,5.80
2023-04-26T02:14:17.142Z,6.40
2023-04-26T02:15:17.112Z,6.10
2023-04-26T02:16:17.165Z,6.00
2023-04-26T02:17:17.060Z,6.00
2023-04-26T02:18:17.029Z,6.30
2023-04-26T02:19:16.995Z,6.30
2023-04-26T02:20:16.964Z,6.60
2023-04-26T02:21:16.939Z,6.70
2023-04-26T02:22:16.926Z,6.80
2023-04-26T02:23:16.879Z,6.50
2023-04-26T02:24:16.849Z,6.60
2023-04-26T02:25:16.815Z,6.90
2023-04-26T02:26:16.791Z,6.60
2023-04-26T02:27:16.757Z,6.90
2023-04-26T02:28:16.727Z,6.70
2023-04-26T02:29:16.704Z,6.60
2023-04-26T02:30:16.664Z,7.00
2023-04-26T02:31:16.674Z,7.00
2023-04-26T02:32:16.613Z,7.00
2023-04-26T02:33:16.590Z,6.90
2023-04-26T02:34:16.553Z,7.50
2023-04-26T02:35:16.516Z,7.40
2023-04-26T02:36:16.496Z,7.10
2023-04-26T02:37:16.471Z,7.20
2023-04-26T02:38:16.450Z,6.80
2023-04-26T02:39:16.401Z,7.00
2023-04-26T02:40:16.368Z,7.30
2023-04-26T02:41:16.342Z,7.20
2023-04-26T02:42:16.311Z,7.00
2023-04-26T02:43:16.293Z,7.00
2023-04-26T02:44:16.250Z,6.80
2023-04-26T02:45:16.225Z,7.40
2023-04-26T02:46:17.312Z,7.20
2023-04-26T02:47:16.162Z,7.30
2023-04-26T02:48:16.126Z,7.10
2023-04-26T02:49:16.105Z,6.80
2023-04-26T02:50:16.083Z,7.20
2023-04-26T02:51:16.063Z,7.10
2023-04-26T02:52:16.005Z,6.80
2023-04-26T02:53:15.978Z,6.80
2023-04-26T02:54:15.966Z,7.00
2023-04-26T02:55:15.925Z,7.00
2023-04-26T02:56:15.890Z,7.40
2023-04-26T02:57:15.879Z,7.30
2023-04-26T02:58:15.829Z,7.40
2023-04-26T02:59:15.799Z,7.60
2023-04-26T03:00:15.787Z,7.70
2023-04-26T03:01:15.766Z,7.80
2023-04-26T03:02:15.773Z,8.50
2023-04-26T03:03:15.954Z,8.20
2023-04-26T03:04:15.745Z,8.00
2023-04-26T03:05:15.616Z,8.40
2023-04-26T03:06:15.594Z,9.20
2023-04-26T03:07:15.560Z,10.10
2023-04-26T03:08:15.531Z,11.10
2023-04-26T03:09:15.497Z,11.20
2023-04-26T03:10:15.479Z,11.80
2023-04-26T03:11:15.440Z,11.60
2023-04-26T03:12:15.405Z,11.70
2023-04-26T03:13:15.377Z,12.50
2023-04-26T03:14:15.342Z,11.80
2023-04-26T03:15:15.316Z,13.10
2023-04-26T03:16:15.300Z,12.80
2023-04-26T03:17:15.262Z,12.90
2023-04-26T03:18:15.227Z,13.10
2023-04-26T03:19:15.194Z,14.30
2023-04-26T03:20:15.174Z,15.30
2023-04-26T03:21:15.136Z,14.50
2023-04-26T03:22:15.104Z,15.70
2023-04-26T03:23:15.072Z,14.70
2023-04-26T03:24:15.046Z,14.60
2023-04-26T03:25:15.020Z,15.50
2023-04-26T03:26:15.005Z,14.90
2023-04-26T03:27:14.955Z,15.20
2023-04-26T03:28:14.925Z,15.30
2023-04-26T03:29:14.919Z,15.50
2023-04-26T03:30:14.864Z,15.60
2023-04-26T03:31:14.837Z,16.40
2023-04-26T03:32:14.851Z,16.50
2023-04-26T03:33:14.802Z,16.00
2023-04-26T03:34:14.747Z,16.40
2023-04-26T03:35:14.716Z,15.60
2023-04-26T03:36:14.681Z,15.70
2023-04-26T03:37:14.653Z,15.60
2023-04-26T03:38:14.629Z,16.80
2023-04-26T03:39:14.595Z,15.80
2023-04-26T03:40:14.567Z,16.50
2023-04-26T03:41:14.546Z,16.10
2023-04-26T03:42:14.537Z,16.10
2023-04-26T03:43:14.478Z,16.40
2023-04-26T03:44:14.453Z,15.70
2023-04-26T03:45:14.416Z,16.00
2023-04-26T03:46:14.436Z,15.70
2023-04-26T03:47:14.352Z,15.90
2023-04-26T03:48:14.326Z,15.90
2023-04-26T03:49:14.298Z,15.00
2023-04-26T03:50:14.263Z,16.40
2023-04-26T03:51:14.229Z,15.90
2023-04-26T03:52:14.202Z,15.80
2023-04-26T03:53:14.171Z,15.20
2023-04-26T03:54:14.138Z,14.90
2023-04-26T03:55:14.120Z,15.60
2023-04-26T03:56:14.079Z,15.30
2023-04-26T03:57:14.050Z,15.00
2023-04-26T03:58:14.040Z,14.60
2023-04-26T03:59:14.003Z,13.80
2023-04-26T04:00:14.013Z,14.00
2023-04-26T04:01:13.931Z,14.70
2023-04-26T04:02:13.958Z,14.10
2023-04-26T04:03:14.079Z,14.30
2023-04-26T04:04:14.247Z,15.30
2023-04-26T04:05:14.066Z,15.00
2023-04-26T04:06:13.775Z,14.80
2023-04-26T04:07:13.758Z,14.10
2023-04-26T04:08:13.713Z,14.90
2023-04-26T04:09:13.683Z,15.00
2023-04-26T04:10:13.668Z,14.30
2023-04-26T04:11:13.623Z,14.10
2023-04-26T04:12:13.595Z,13.70
2023-04-26T04:13:13.570Z,14.10
2023-04-26T04:14:13.621Z,14.20
2023-04-26T04:15:13.502Z,14.00
2023-04-26T04:16:13.520Z,14.30
2023-04-26T04:17:13.441Z,14.10
2023-04-26T04:18:13.514Z,14.00
2023-04-26T04:19:13.380Z,14.40
2023-04-26T04:20:13.354Z,13.60
2023-04-26T04:21:13.320Z,14.10
2023-04-26T04:22:13.289Z,13.50
2023-04-26T04:23:13.260Z,12.60
2023-04-26T04:24:13.229Z,13.30
2023-04-26T04:25:13.201Z,13.40
2023-04-26T04:26:13.168Z,13.20
2023-04-26T04:27:13.138Z,12.50
2023-04-26T04:28:13.107Z,12.40
2023-04-26T04:29:13.082Z,12.40
2023-04-26T04:30:13.170Z,14.30
2023-04-26T04:31:13.096Z,12.90
2023-04-26T04:32:12.987Z,12.90
2023-04-26T04:33:12.976Z,12.70
2023-04-26T04:34:12.930Z,12.10
2023-04-26T04:35:12.895Z,11.70
2023-04-26T04:36:12.869Z,12.00
2023-04-26T04:37:12.838Z,12.30
2023-04-26T04:38:12.807Z,12.70
2023-04-26T04:39:12.775Z,11.90
2023-04-26T04:40:12.750Z,11.50
2023-04-26T04:41:12.717Z,11.90
2023-04-26T04:42:12.691Z,12.30
2023-04-26T04:43:12.657Z,12.30
2023-04-26T04:44:12.625Z,12.10
2023-04-26T04:45:12.594Z,12.40
2023-04-26T04:46:12.935Z,12.40
2023-04-26T04:47:12.537Z,12.40
2023-04-26T04:48:12.574Z,11.70
2023-04-26T04:49:12.475Z,11.90
2023-04-26T04:50:12.442Z,11.60
2023-04-26T04:51:12.430Z,12.20
2023-04-26T04:52:12.382Z,11.40
2023-04-26T04:53:12.354Z,11.70
2023-04-26T04:54:12.329Z,11.30
2023-04-26T04:55:12.293Z,11.50
2023-04-26T04:56:12.262Z,11.60
2023-04-26T04:57:12.232Z,11.80
2023-04-26T04:58:12.205Z,11.50
2023-04-26T04:59:12.171Z,11.20
2023-04-26T05:00:12.145Z,11.60
2023-04-26T05:01:12.123Z,11.70
2023-04-26T05:02:12.292Z,12.00
2023-04-26T05:03:12.154Z,10.90
2023-04-26T05:04:12.318Z,11.30
2023-04-26T05:05:12.072Z,11.00
2023-04-26T05:06:11.969Z,11.60
2023-04-26T05:07:11.939Z,11.00
2023-04-26T05:08:11.910Z,10.50
2023-04-26T05:09:11.876Z,10.80
2023-04-26T05:10:11.844Z,11.70
2023-04-26T05:11:11.822Z,10.70
2023-04-26T05:12:11.788Z,10.30
2023-04-26T05:13:11.763Z,11.20
2023-04-26T05:14:11.735Z,10.70
2023-04-26T05:15:11.703Z,10.40
2023-04-26T05:16:11.706Z,11.20
2023-04-26T05:17:11.640Z,10.40
2023-04-26T05:18:11.688Z,10.50
2023-04-26T05:19:11.581Z,10.40
2023-04-26T05:20:11.560Z,10.60
2023-04-26T05:21:11.521Z,10.00
2023-04-26T05:22:11.493Z,9.00
2023-04-26T05:23:11.464Z,9.70
2023-04-26T05:24:11.437Z,9.50
2023-04-26T05:25:11.402Z,10.70
2023-04-26T05:26:11.373Z,10.50
2023-04-26T05:27:11.347Z,9.60
2023-04-26T05:28:11.314Z,10.00
2023-04-26T05:29:11.286Z,10.00
2023-04-26T05:30:11.269Z,9.40
2023-04-26T05:31:11.519Z,9.70
2023-04-26T05:32:11.256Z,10.00
2023-04-26T05:33:11.216Z,9.80
2023-04-26T05:34:11.155Z,9.30
2023-04-26T05:35:11.107Z,10.20
2023-04-26T05:36:11.096Z,10.20
2023-04-26T05:37:11.050Z,9.50
2023-04-26T05:38:11.017Z,9.40
2023-04-26T05:39:10.999Z,10.10
2023-04-26T05:40:10.958Z,10.80
2023-04-26T05:41:10.929Z,10.90
2023-04-26T05:42:10.920Z,10.00
2023-04-26T05:43:10.870Z,9.30
2023-04-26T05:44:10.849Z,9.20
2023-04-26T05:45:10.811Z,8.90
2023-04-26T05:46:10.798Z,8.70
2023-04-26T05:47:10.757Z,9.40
2023-04-26T05:48:10.766Z,9.20
2023-04-26T05:49:10.706Z,9.30
2023-04-26T05:50:10.711Z,9.00
2023-04-26T05:51:10.633Z,9.60
2023-04-26T05:52:10.605Z,9.70
2023-04-26T05:53:10.576Z,9.20
2023-04-26T05:54:10.554Z,9.50
2023-04-26T05:55:10.526Z,9.60
2023-04-26T05:56:10.486Z,9.50
2023-04-26T05:57:10.496Z,9.50
2023-04-26T05:58:10.425Z,9.30
2023-04-26T05:59:10.397Z,9.10
2023-04-26T06:00:10.364Z,9.20
2023-04-26T06:01:10.337Z,8.60
2023-04-26T06:02:10.318Z,8.60
2023-04-26T06:03:10.393Z,8.90
2023-04-26T06:04:10.890Z,8.80
2023-04-26T06:05:10.534Z,8.40
2023-04-26T06:06:10.288Z,8.70
2023-04-26T06:07:10.160Z,9.20
2023-04-26T06:08:10.128Z,9.10
2023-04-26T06:09:10.170Z,9.00
2023-04-26T06:10:10.077Z,8.70
2023-04-26T06:11:10.042Z,8.10
2023-04-26T06:12:10.011Z,8.60
2023-04-26T06:13:09.987Z,8.30
2023-04-26T06:14:17.016Z,9.00
2023-04-26T06:15:09.926Z,8.80
2023-04-26T06:16:09.899Z,8.10
2023-04-26T06:17:09.905Z,8.80
2023-04-26T06:18:09.886Z,8.40
2023-04-26T06:19:09.810Z,8.50
2023-04-26T06:20:09.783Z,8.40
2023-04-26T06:21:09.750Z,8.00
2023-04-26T06:22:09.737Z,8.50
2023-04-26T06:23:09.692Z,8.90
2023-04-26T06:24:09.661Z,8.00
2023-04-26T06:25:09.635Z,7.90
2023-04-26T06:26:09.603Z,7.60
2023-04-26T06:27:09.575Z,7.70
2023-04-26T06:28:09.546Z,7.30
2023-04-26T06:29:09.519Z,8.30
2023-04-26T06:30:09.494Z,7.60
2023-04-26T06:31:09.483Z,7.80
2023-04-26T06:32:09.436Z,7.40
2023-04-26T06:33:09.434Z,7.30
2023-04-26T06:34:09.378Z,7.90
2023-04-26T06:35:09.353Z,8.10
2023-04-26T06:36:09.320Z,7.90
2023-04-26T06:37:09.293Z,8.00
2023-04-26T06:38:09.285Z,8.70
2023-04-26T06:39:09.228Z,8.00
2023-04-26T06:40:09.205Z,7.50
2023-04-26T06:41:09.345Z,7.10
2023-04-26T06:42:09.144Z,7.90
2023-04-26T06:43:09.124Z,7.60
2023-04-26T06:44:09.085Z,7.60
2023-04-26T06:45:09.067Z,7.90
2023-04-26T06:46:09.055Z,8.20
2023-04-26T06:47:09.004Z,8.90
2023-04-26T06:48:09.032Z,8.00
2023-04-26T06:49:08.943Z,8.30
2023-04-26T06:50:08.979Z,8.20
2023-04-26T06:51:08.889Z,9.20
2023-04-26T06:52:09.539Z,8.90
2023-04-26T06:53:08.834Z,8.30
2023-04-26T06:54:09.122Z,8.40
2023-04-26T06:55:08.790Z,8.40
2023-04-26T06:56:08.754Z,8.80
2023-04-26T06:57:08.715Z,8.70
2023-04-26T06:58:08.693Z,8.50
2023-04-26T06:59:08.656Z,8.20
2023-04-26T07:00:08.633Z,8.60
2023-04-26T07:01:08.600Z,8.60
2023-04-26T07:02:08.742Z,8.90
2023-04-26T07:03:08.755Z,8.60
2023-04-26T07:04:08.684Z,8.00
2023-04-26T07:05:08.551Z,8.20
2023-04-26T07:06:08.466Z,8.10
2023-04-26T07:07:09.156Z,7.60
2023-04-26T07:08:08.400Z,8.70
2023-04-26T07:09:08.372Z,8.70
2023-04-26T07:10:08.537Z,9.70
2023-04-26T07:11:08.317Z,10.00
2023-04-26T07:12:08.293Z,10.20
2023-04-26T07:13:09.538Z,12.20
2023-04-26T07:14:08.254Z,10.60
2023-04-26T07:15:08.279Z,9.90
2023-04-26T07:16:08.214Z,10.40
2023-04-26T07:17:08.150Z,10.40
2023-04-26T07:18:08.150Z,10.20
2023-04-26T07:19:08.090Z,10.30
2023-04-26T07:20:08.065Z,10.70
2023-04-26T07:21:08.038Z,10.70
2023-04-26T07:22:08.072Z,10.40
2023-04-26T07:23:07.985Z,10.70
2023-04-26T07:24:07.954Z,11.00
2023-04-26T07:25:07.937Z,10.70
2023-04-26T07:26:07.915Z,10.90
2023-04-26T07:27:07.880Z,11.30
2023-04-26T07:28:07.856Z,11.00
2023-04-26T07:29:07.825Z,10.60
2023-04-26T07:30:07.788Z,10.40
2023-04-26T07:31:09.286Z,10.20
2023-04-26T07:32:07.782Z,10.40
2023-04-26T07:33:07.813Z,10.80
2023-04-26T07:34:07.672Z,10.30
2023-04-26T07:35:07.680Z,10.90
2023-04-26T07:36:07.617Z,11.40
2023-04-26T07:37:07.588Z,11.80
2023-04-26T07:38:07.569Z,11.00
2023-04-26T07:39:07.532Z,11.10
2023-04-26T07:40:07.517Z,11.10
2023-04-26T07:41:07.477Z,11.70
2023-04-26T07:42:07.500Z,11.00
2023-04-26T07:43:07.435Z,11.50
2023-04-26T07:44:07.396Z,11.20
2023-04-26T07:45:07.367Z,10.70
2023-04-26T07:46:07.391Z,11.30
2023-04-26T07:47:07.307Z,11.00
2023-04-26T07:48:07.341Z,11.60
2023-04-26T07:49:07.255Z,11.60
2023-04-26T07:50:07.225Z,11.40
2023-04-26T07:51:07.197Z,10.70
2023-04-26T07:52:07.169Z,10.40
2023-04-26T07:53:07.250Z,10.30
2023-04-26T07:54:07.113Z,11.40
2023-04-26T07:55:07.087Z,10.60
2023-04-26T07:56:07.060Z,10.40
2023-04-26T07:57:07.038Z,10.20
2023-04-26T07:58:07.029Z,11.20
2023-04-26T07:59:06.972Z,10.30
2023-04-26T08:00:06.945Z,9.60
2023-04-26T08:01:06.930Z,10.10
2023-04-26T08:02:06.892Z,9.70
2023-04-26T08:03:07.036Z,9.90
2023-04-26T08:04:07.007Z,9.90
2023-04-26T08:05:06.917Z,9.40
2023-04-26T08:06:06.885Z,10.10
2023-04-26T08:07:06.748Z,9.80
2023-04-26T08:08:06.755Z,9.50
2023-04-26T08:09:06.697Z,9.90
2023-04-26T08:10:06.668Z,9.30
2023-04-26T08:11:06.633Z,9.70
2023-04-26T08:12:06.633Z,9.50
2023-04-26T08:13:06.591Z,9.20
2023-04-26T08:14:06.577Z,9.30
2023-04-26T08:15:06.533Z,9.30
2023-04-26T08:16:06.573Z,9.20
2023-04-26T08:17:06.512Z,9.10
2023-04-26T08:18:06.475Z,9.10
2023-04-26T08:19:06.418Z,9.00
2023-04-26T08:20:06.394Z,9.20
2023-04-26T08:21:06.356Z,8.50
2023-04-26T08:22:06.351Z,9.00
2023-04-26T08:23:06.298Z,8.80
2023-04-26T08:24:06.278Z,8.80
2023-04-26T08:25:06.244Z,9.40
2023-04-26T08:26:06.218Z,8.50
2023-04-26T08:27:06.197Z,7.70
2023-04-26T08:28:06.202Z,7.00
2023-04-26T08:29:06.142Z,7.80
2023-04-26T08:30:06.131Z,7.70
2023-04-26T08:31:06.111Z,8.50
2023-04-26T08:32:06.072Z,8.40
2023-04-26T08:33:06.072Z,8.90
2023-04-26T08:34:05.993Z,10.10
2023-04-26T08:35:05.968Z,10.30
2023-04-26T08:36:05.943Z,10.40
2023-04-26T08:37:05.912Z,9.70
2023-04-26T08:38:05.888Z,9.80
2023-04-26T08:39:05.861Z,9.50
2023-04-26T08:40:05.829Z,9.60
2023-04-26T08:41:05.810Z,8.70
2023-04-26T08:42:05.783Z,8.60
2023-04-26T08:43:05.744Z,8.90
2023-04-26T08:44:05.752Z,9.60
2023-04-26T08:45:05.691Z,9.60
2023-04-26T08:46:05.836Z,9.40
2023-04-26T08:47:05.647Z,9.30
2023-04-26T08:48:05.668Z,9.70
2023-04-26T08:49:05.591Z,9.10
2023-04-26T08:50:05.563Z,9.80
2023-04-26T08:51:05.530Z,9.70
2023-04-26T08:52:05.505Z,9.30
2023-04-26T08:53:05.473Z,9.40
2023-04-26T08:54:05.449Z,9.10
2023-04-26T08:55:05.421Z,9.80
2023-04-26T08:56:05.399Z,9.40
2023-04-26T08:57:05.370Z,9.10
2023-04-26T08:58:05.335Z,9.40
2023-04-26T08:59:05.311Z,9.00
2023-04-26T09:00:05.283Z,9.70
2023-04-26T09:01:05.254Z,9.10
2023-04-26T09:02:05.331Z,9.70
2023-04-26T09:03:05.408Z,9.50
2023-04-26T09:04:05.454Z,9.60
2023-04-26T09:05:05.331Z,9.30
2023-04-26T09:06:05.120Z,8.50
2023-04-26T09:07:05.095Z,9.20
2023-04-26T09:08:05.079Z,8.20
2023-04-26T09:09:05.045Z,8.40
2023-04-26T09:10:05.007Z,8.80
2023-04-26T09:11:04.982Z,8.60
2023-04-26T09:12:04.956Z,8.30
2023-04-26T09:13:04.926Z,8.90
2023-04-26T09:14:04.911Z,8.80
2023-04-26T09:15:04.885Z,8.80
2023-04-26T09:16:05.308Z,9.20
2023-04-26T09:17:04.818Z,8.40
2023-04-26T09:18:04.842Z,8.00
2023-04-26T09:19:04.768Z,8.20
2023-04-26T09:20:07.178Z,8.50
2023-04-26T09:21:04.714Z,8.50
2023-04-26T09:22:04.682Z,8.20
2023-04-26T09:23:04.654Z,8.00
2023-04-26T09:24:04.649Z,8.80
2023-04-26T09:25:04.601Z,7.90
2023-04-26T09:26:04.576Z,7.90
2023-04-26T09:27:04.550Z,7.60
2023-04-26T09:28:04.537Z,7.80
2023-04-26T09:29:04.496Z,7.70
2023-04-26T09:30:04.477Z,7.20
2023-04-26T09:31:04.496Z,7.30
2023-04-26T09:32:04.417Z,7.80
2023-04-26T09:33:04.407Z,7.90
2023-04-26T09:34:04.481Z,7.40
2023-04-26T09:35:04.340Z,7.40
2023-04-26T09:36:04.313Z,7.70
2023-04-26T09:37:04.287Z,7.70
2023-04-26T09:38:10.465Z,7.70
2023-04-26T09:39:04.261Z,8.00
2023-04-26T09:40:04.212Z,7.00
2023-04-26T09:41:04.180Z,7.10
2023-04-26T09:42:04.155Z,7.10
2023-04-26T09:43:04.150Z,6.90
2023-04-26T09:44:04.103Z,7.30
2023-04-26T09:45:04.077Z,6.90
2023-04-26T09:46:04.057Z,6.50
2023-04-26T09:47:04.266Z,7.80
2023-04-26T09:48:04.025Z,7.00
2023-04-26T09:49:03.972Z,7.10
2023-04-26T09:50:03.969Z,6.90
2023-04-26T09:51:03.920Z,8.20
2023-04-26T09:52:03.898Z,7.20
2023-04-26T09:53:03.870Z,6.70
2023-04-26T09:54:03.846Z,6.10
2023-04-26T09:55:03.818Z,6.90
2023-04-26T09:56:03.798Z,7.10
2023-04-26T09:57:03.781Z,6.70
2023-04-26T09:58:03.744Z,6.50
2023-04-26T09:59:03.716Z,7.10
2023-04-26T10:00:03.694Z,6.80
2023-04-26T10:01:03.772Z,6.60
2023-04-26T10:02:03.643Z,6.50
2023-04-26T10:03:03.682Z,6.70
2023-04-26T10:04:03.663Z,7.00
2023-04-26T10:05:03.607Z,6.90
2023-04-26T10:06:03.721Z,6.50
2023-04-26T10:07:03.510Z,6.60
2023-04-26T10:08:03.490Z,6.50
2023-04-26T10:09:03.454Z,6.30
2023-04-26T10:10:03.435Z,6.50
2023-04-26T10:11:03.409Z,6.30
2023-04-26T10:12:03.431Z,6.40
2023-04-26T10:13:03.361Z,6.30
2023-04-26T10:14:03.338Z,5.90
2023-04-26T10:15:03.307Z,6.00
2023-04-26T10:16:03.299Z,6.50
2023-04-26T10:17:03.311Z,6.00
2023-04-26T10:18:03.261Z,6.10
2023-04-26T10:19:03.197Z,6.00
2023-04-26T10:20:03.182Z,6.40
2023-04-26T10:21:03.151Z,6.20
2023-04-26T10:22:03.284Z,5.80
2023-04-26T10:23:03.095Z,5.70
2023-04-26T10:24:03.094Z,6.30
2023-04-26T10:25:03.040Z,5.90
2023-04-26T10:26:03.016Z,5.80
2023-04-26T10:27:03.009Z,5.60
2023-04-26T10:28:02.967Z,5.60
2023-04-26T10:29:03.570Z,5.50
2023-04-26T10:30:02.909Z,5.40
2023-04-26T10:31:02.885Z,5.20
2023-04-26T10:32:03.130Z,5.30
2023-04-26T10:33:02.872Z,5.30
2023-04-26T10:34:02.809Z,5.60
2023-04-26T10:35:02.789Z,5.50
2023-04-26T10:36:02.758Z,5.60
2023-04-26T10:37:02.750Z,5.20
2023-04-26T10:38:02.747Z,4.70
2023-04-26T10:39:02.679Z,4.90
2023-04-26T10:40:02.656Z,5.20
2023-04-26T10:41:02.631Z,4.90
2023-04-26T10:42:02.606Z,5.30
2023-04-26T10:43:02.582Z,4.20
2023-04-26T10:44:02.559Z,4.60
2023-04-26T10:45:02.526Z,4.30
2023-04-26T10:46:02.599Z,3.80
2023-04-26T10:47:02.484Z,4.00
2023-04-26T10:48:02.503Z,3.70
2023-04-26T10:49:02.439Z,4.40
2023-04-26T10:50:04.346Z,4.20
2023-04-26T10:51:02.682Z,4.00
2023-04-26T10:52:02.357Z,4.60
2023-04-26T10:53:02.354Z,4.30
2023-04-26T10:54:02.392Z,4.40
2023-04-26T10:55:02.292Z,4.00
2023-04-26T10:56:02.272Z,4.10
2023-04-26T10:57:02.234Z,3.90
2023-04-26T10:58:02.203Z,3.10
2023-04-26T10:59:02.814Z,3.60
2023-04-26T11:00:02.158Z,3.00
2023-04-26T11:01:02.190Z,2.80
2023-04-26T11:02:02.109Z,2.80
2023-04-26T11:03:02.110Z,2.60
2023-04-26T11:04:02.208Z,2.80
2023-04-26T11:05:02.160Z,3.40
2023-04-26T11:06:02.014Z,3.70
2023-04-26T11:07:01.980Z,3.70
2023-04-26T11:08:01.961Z,3.60
2023-04-26T11:09:01.943Z,3.40
2023-04-26T11:10:01.983Z,3.10
2023-04-26T11:11:01.881Z,3.00
2023-04-26T11:12:01.864Z,2.70
2023-04-26T11:13:01.837Z,3.40
2023-04-26T11:14:01.807Z,3.50
2023-04-26T11:15:01.812Z,3.90
2023-04-26T11:16:01.771Z,3.50
2023-04-26T11:17:01.734Z,3.20
2023-04-26T11:18:01.765Z,3.70
2023-04-26T11:19:01.689Z,3.30
2023-04-26T11:20:01.656Z,3.40
2023-04-26T11:21:01.638Z,3.30
2023-04-26T11:22:01.620Z,3.40
2023-04-26T11:23:01.578Z,3.40
2023-04-26T11:24:01.569Z,3.50
2023-04-26T11:25:01.546Z,3.40
2023-04-26T11:26:01.529Z,3.20
2023-04-26T11:27:01.482Z,3.20
2023-04-26T11:28:01.456Z,3.40
2023-04-26T11:29:01.480Z,3.20
2023-04-26T11:30:01.418Z,3.30
2023-04-26T11:31:01.428Z,3.00
2023-04-26T11:32:01.355Z,3.00
2023-04-26T11:33:01.383Z,3.10
2023-04-26T11:34:01.312Z,3.30
2023-04-26T11:35:01.279Z,3.60
2023-04-26T11:36:01.257Z,3.10
2023-04-26T11:37:01.232Z,3.40
2023-04-26T11:38:01.218Z,2.90
2023-04-26T11:39:01.187Z,2.90
2023-04-26T11:40:01.158Z,3.10
2023-04-26T11:41:01.133Z,3.20
2023-04-26T11:42:01.132Z,3.20
2023-04-26T11:43:01.100Z,3.10
2023-04-26T11:44:01.125Z,3.30
2023-04-26T11:45:01.057Z,3.40
2023-04-26T11:46:01.017Z,2.90
2023-04-26T11:47:01.113Z,3.10
2023-04-26T11:48:00.994Z,3.50
2023-04-26T11:49:00.956Z,3.00
2023-04-26T11:50:00.918Z,2.90
2023-04-26T11:51:00.904Z,2.90
2023-04-26T11:52:00.874Z,3.00
2023-04-26T11:53:00.858Z,3.00
2023-04-26T11:54:00.857Z,3.30
2023-04-26T11:55:00.843Z,3.30
2023-04-26T11:56:00.808Z,3.20
2023-04-26T11:57:00.760Z,3.10
2023-04-26T11:58:00.763Z,3.00
2023-04-26T11:59:00.712Z,3.00
2023-04-26T12:00:00.687Z,2.90
2023-04-26T12:01:00.659Z,3.10
2023-04-26T12:02:00.663Z,3.00
2023-04-26T12:03:00.829Z,2.80
2023-04-26T12:04:00.809Z,2.90
2023-04-26T12:05:00.758Z,2.90
2023-04-26T12:06:00.546Z,3.00
2023-04-26T12:07:00.530Z,3.30
2023-04-26T12:08:00.518Z,3.00
2023-04-26T12:09:00.486Z,3.20
2023-04-26T12:10:01.168Z,3.00
2023-04-26T12:11:00.434Z,2.70
2023-04-26T12:12:00.408Z,2.80
2023-04-26T12:13:00.401Z,3.00
2023-04-26T12:14:00.450Z,2.90
2023-04-26T12:15:00.342Z,2.90
2023-04-26T12:16:00.337Z,3.00
2023-04-26T12:17:00.315Z,3.00
2023-04-26T12:18:00.303Z,2.90
2023-04-26T12:19:00.249Z,3.00
2023-04-26T12:20:00.222Z,2.90
2023-04-26T12:21:00.222Z,3.00
2023-04-26T12:22:00.178Z,2.90
2023-04-26T12:23:00.158Z,3.50
2023-04-26T12:24:00.152Z,3.00
2023-04-26T12:25:00.134Z,2.80
2023-04-26T12:26:00.127Z,3.10
2023-04-26T12:27:02.189Z,3.20
2023-04-26T12:28:00.051Z,3.10
2023-04-26T12:29:00.021Z,3.10
2023-04-26T12:30:00.153Z,3.20
2023-04-26T12:30:59.975Z,2.90
2023-04-26T12:32:00.051Z,3.00
2023-04-26T12:33:09.152Z,3.20
2023-04-26T12:33:59.906Z,2.90
2023-04-26T12:34:59.885Z,2.60
2023-04-26T12:35:59.878Z,2.90
2023-04-26T12:36:59.842Z,2.80
2023-04-26T12:37:59.813Z,2.90
2023-04-26T12:38:59.801Z,2.60
2023-04-26T12:39:59.771Z,2.70
2023-04-26T12:40:59.754Z,2.60
2023-04-26T12:41:59.721Z,2.80
2023-04-26T12:42:59.703Z,2.60
2023-04-26T12:43:59.679Z,5.30
2023-04-26T12:44:59.659Z,3.90
2023-04-26T12:45:59.754Z,2.90
2023-04-26T12:46:59.613Z,3.00
2023-04-26T12:47:59.633Z,3.20
2023-04-26T12:48:59.569Z,2.80
2023-04-26T12:49:59.542Z,2.60
2023-04-26T12:50:59.524Z,2.70
2023-04-26T12:51:59.498Z,3.00
2023-04-26T12:52:59.477Z,3.20
2023-04-26T12:53:59.453Z,2.90
2023-04-26T12:54:59.429Z,2.90
2023-04-26T12:55:59.406Z,2.80
2023-04-26T12:56:59.386Z,3.00
2023-04-26T12:57:59.361Z,2.60
2023-04-26T12:58:59.349Z,2.60
2023-04-26T12:59:59.319Z,2.70
2023-04-26T13:00:59.296Z,2.90
2023-04-26T13:01:59.340Z,2.60
2023-04-26T13:02:59.373Z,2.70
2023-04-26T13:03:59.454Z,2.60
2023-04-26T13:04:59.392Z,2.60
2023-04-26T13:05:59.184Z,2.60
2023-04-26T13:06:59.162Z,2.50
2023-04-26T13:07:59.137Z,2.70
2023-04-26T13:08:59.115Z,2.60
2023-04-26T13:09:59.092Z,3.00
2023-04-26T13:10:59.080Z,2.90